Time;durP1;ratioP1;P1;durP2;ratioP2;P2;SDS_P1;SDS_P2;PMS_P1;PMS_P2;Temp;Humidity;BMP_temperature;BMP_pressure;BME280_temperature;BME280_humidity;BME280_pressure;Samples;Min_cycle;Max_cycle;Signal;HPM_P1;HPM_P2
2023/05/03 00:00:15;;;;;;;5.95;2.03;;;11.10;99.90;;;;;;5008904;28;20057;-85
2023/05/03 00:02:43;;;;;;;2.38;1.85;;;11.10;99.90;;;;;;4995483;28;20386;-84
2023/05/03 00:05:11;;;;;;;4.18;1.90;;;11.10;99.90;;;;;;4997532;28;20026;-84
2023/05/03 00:07:37;;;;;;;4.57;2.25;;;11.20;99.90;;;;;;5003360;28;20036;-84
2023/05/03 00:10:03;;;;;;;2.90;1.83;;;11.10;99.90;;;;;;4998965;28;20085;-84
2023/05/03 00:12:29;;;;;;;3.17;2.45;;;11.10;99.90;;;;;;4994851;28;20106;-84
2023/05/03 00:14:54;;;;;;;3.20;1.50;;;11.10;99.90;;;;;;5000697;28;20033;-84
2023/05/03 00:17:20;;;;;;;6.25;2.38;;;11.10;99.90;;;;;;5000778;28;20053;-84
2023/05/03 00:19:46;;;;;;;2.35;2.15;;;11.10;99.90;;;;;;5010824;28;20029;-83
2023/05/03 00:22:12;;;;;;;3.38;1.88;;;11.10;99.90;;;;;;4995349;28;20529;-83
2023/05/03 00:24:37;;;;;;;4.07;1.90;;;11.10;99.90;;;;;;4997926;28;20101;-84
2023/05/03 00:27:04;;;;;;;2.47;1.52;;;11.10;99.90;;;;;;5005937;28;20023;-84
2023/05/03 00:29:29;;;;;;;3.00;1.92;;;11.20;99.90;;;;;;5007238;28;20041;-84
2023/05/03 00:31:55;;;;;;;8.20;1.80;;;11.20;99.90;;;;;;5014578;28;20018;-84
2023/05/03 00:34:20;;;;;;;6.72;1.88;;;11.20;99.90;;;;;;4997124;28;20026;-84
2023/05/03 00:36:46;;;;;;;3.50;1.77;;;11.20;99.90;;;;;;4998495;28;20472;-85
2023/05/03 00:39:12;;;;;;;3.60;1.73;;;11.20;99.90;;;;;;5001878;28;20089;-84
2023/05/03 00:41:38;;;;;;;3.85;2.03;;;11.10;99.90;;;;;;5014316;28;20050;-84
2023/05/03 00:44:04;;;;;;;3.53;1.90;;;11.10;99.90;;;;;;5003382;28;20033;-83
2023/05/03 00:46:30;;;;;;;4.97;1.70;;;11.20;99.90;;;;;;4996310;28;20040;-84
2023/05/03 00:48:56;;;;;;;6.57;1.70;;;11.10;99.90;;;;;;4997587;28;20027;-84
2023/05/03 00:51:22;;;;;;;3.10;1.55;;;11.10;99.90;;;;;;5014284;28;20044;-84
2023/05/03 00:53:48;;;;;;;6.53;1.70;;;11.00;99.90;;;;;;5007880;28;20038;-84
2023/05/03 00:56:22;;;;;;;5.68;2.53;;;11.00;99.90;;;;;;4995056;28;20044;-84
2023/05/03 00:58:49;;;;;;;2.35;1.63;;;11.00;99.90;;;;;;4998640;28;20037;-84
2023/05/03 01:01:15;;;;;;;3.67;1.80;;;10.90;99.90;;;;;;5000467;28;20054;-83
2023/05/03 01:03:41;;;;;;;4.07;1.88;;;10.90;99.90;;;;;;4994037;28;20513;-83
2023/05/03 01:06:30;;;;;;;6.47;2.15;;;10.80;99.90;;;;;;4994975;28;20533;-84
2023/05/03 01:09:04;;;;;;;4.05;1.70;;;10.90;99.90;;;;;;4993511;28;20423;-84
2023/05/03 01:11:47;;;;;;;4.97;1.80;;;10.90;99.90;;;;;;5006982;28;20100;-84
2023/05/03 01:14:40;;;;;;;3.50;1.58;;;10.90;99.90;;;;;;4996801;28;20031;-84
2023/05/03 01:17:11;;;;;;;3.80;2.08;;;10.80;99.90;;;;;;5002590;28;20497;-84
2023/05/03 01:19:48;;;;;;;4.70;1.77;;;10.80;99.90;;;;;;4993710;28;20023;-84
2023/05/03 01:22:41;;;;;;;1.77;1.48;;;10.80;99.90;;;;;;5009566;28;20033;-84
2023/05/03 01:25:11;;;;;;;4.03;1.65;;;10.80;99.90;;;;;;5006071;28;20033;-83
2023/05/03 01:27:38;;;;;;;2.67;1.90;;;10.70;99.90;;;;;;4993836;28;20026;-84
2023/05/03 01:30:06;;;;;;;6.78;2.40;;;10.80;99.90;;;;;;4993168;28;20031;-84
2023/05/03 01:32:57;;;;;;;3.88;1.50;;;10.70;99.90;;;;;;4995062;28;20113;-84
2023/05/03 01:35:27;;;;;;;3.75;1.90;;;10.70;99.90;;;;;;4999088;28;20038;-83
2023/05/03 01:37:55;;;;;;;4.60;1.67;;;10.80;99.90;;;;;;5004884;28;20034;-83
2023/05/03 01:40:24;;;;;;;4.38;1.70;;;10.80;99.90;;;;;;4993880;28;20172;-83
2023/05/03 01:42:51;;;;;;;6.80;2.03;;;10.70;99.90;;;;;;5007295;28;20552;-84
2023/05/03 01:45:17;;;;;;;4.63;1.92;;;10.70;99.90;;;;;;5011314;28;20030;-83
2023/05/03 01:47:42;;;;;;;2.47;1.65;;;10.70;99.90;;;;;;5012600;28;20208;-84
2023/05/03 01:50:08;;;;;;;12.32;2.10;;;10.70;99.90;;;;;;4993482;28;20062;-84
2023/05/03 01:52:34;;;;;;;4.05;1.90;;;10.70;99.90;;;;;;4994099;28;20026;-84
2023/05/03 01:55:00;;;;;;;7.43;1.60;;;10.70;99.90;;;;;;5000972;28;20041;-83
2023/05/03 01:57:25;;;;;;;10.05;1.92;;;10.60;99.90;;;;;;5011612;28;20030;-83
2023/05/03 01:59:51;;;;;;;3.47;1.90;;;10.50;99.90;;;;;;5011325;28;20033;-83
2023/05/03 02:02:16;;;;;;;4.47;2.00;;;10.90;99.90;;;;;;5009527;28;20092;-83
2023/05/03 02:04:42;;;;;;;5.43;2.17;;;10.20;99.90;;;;;;5002421;28;20089;-84
2023/05/03 02:07:08;;;;;;;2.30;1.73;;;10.20;99.90;;;;;;4993530;28;20030;-83
2023/05/03 02:09:33;;;;;;;4.40;2.10;;;10.20;99.90;;;;;;5007002;28;20072;-83
2023/05/03 02:11:59;;;;;;;3.97;1.92;;;10.20;99.90;;;;;;5011477;28;20030;-84
2023/05/03 02:14:24;;;;;;;4.53;1.83;;;10.20;99.90;;;;;;4995543;28;20077;-83
2023/05/03 02:16:50;;;;;;;9.90;2.10;;;10.30;99.90;;;;;;4992981;28;20034;-83
2023/05/03 02:19:16;;;;;;;9.40;2.83;;;10.20;99.90;;;;;;4996961;28;20117;-84
2023/05/03 02:21:41;;;;;;;5.40;2.22;;;10.20;99.90;;;;;;5003141;28;20100;-84
2023/05/03 02:24:07;;;;;;;3.78;2.00;;;10.30;99.90;;;;;;4993615;28;20117;-84
2023/05/03 02:26:33;;;;;;;4.50;1.88;;;10.30;99.90;;;;;;4992454;28;20458;-84
2023/05/03 02:28:58;;;;;;;2.50;1.83;;;10.20;99.90;;;;;;5010981;28;20394;-84
2023/05/03 02:31:25;;;;;;;8.70;2.50;;;9.80;99.90;;;;;;5012223;28;20381;-83
2023/05/03 02:33:51;;;;;;;8.25;2.05;;;9.90;99.90;;;;;;5009793;28;20042;-84
2023/05/03 02:36:16;;;;;;;5.97;1.70;;;10.40;99.90;;;;;;5011295;28;20045;-84
2023/05/03 02:38:42;;;;;;;3.67;1.75;;;10.00;99.90;;;;;;5003548;28;20027;-84
2023/05/03 02:41:07;;;;;;;3.00;1.83;;;10.10;99.90;;;;;;4992344;28;20050;-84
2023/05/03 02:43:33;;;;;;;3.75;1.73;;;10.20;99.90;;;;;;4991873;28;20037;-84
2023/05/03 02:45:58;;;;;;;6.93;2.67;;;10.20;99.90;;;;;;4998695;28;20042;-84
2023/05/03 02:48:24;;;;;;;5.03;1.83;;;10.30;99.90;;;;;;4996222;28;20022;-84
2023/05/03 02:50:50;;;;;;;4.20;1.60;;;10.30;99.90;;;;;;5012638;28;20555;-84
2023/05/03 02:53:16;;;;;;;3.85;1.83;;;10.30;99.90;;;;;;4998538;28;20022;-84
2023/05/03 02:55:42;;;;;;;12.45;1.95;;;10.30;99.90;;;;;;4992832;28;20040;-83
2023/05/03 02:58:08;;;;;;;9.80;2.08;;;10.30;99.90;;;;;;5008763;28;20014;-83
2023/05/03 03:00:34;;;;;;;4.43;2.00;;;10.30;99.90;;;;;;4995596;28;20034;-84
2023/05/03 03:03:00;;;;;;;5.10;1.67;;;10.30;99.90;;;;;;5006397;28;20390;-84
2023/05/03 03:05:25;;;;;;;5.93;1.88;;;10.30;99.90;;;;;;4992800;28;20077;-84
2023/05/03 03:07:51;;;;;;;2.97;2.00;;;10.20;99.90;;;;;;5006207;28;20033;-84
2023/05/03 03:10:16;;;;;;;8.25;2.47;;;10.20;99.90;;;;;;5007838;28;20038;-83
2023/05/03 03:12:42;;;;;;;5.13;2.47;;;10.20;99.90;;;;;;4993277;28;20018;-84
2023/05/03 03:15:08;;;;;;;8.00;1.98;;;10.20;99.90;;;;;;5011286;28;20033;-83
2023/05/03 03:17:37;;;;;;;5.05;2.70;;;10.10;99.90;;;;;;4992307;28;20034;-83
2023/05/03 03:20:05;;;;;;;3.70;2.15;;;10.10;99.90;;;;;;4992933;28;20038;-83
2023/05/03 03:22:30;;;;;;;3.72;2.08;;;10.10;99.90;;;;;;4992150;28;20023;-84
2023/05/03 03:24:56;;;;;;;4.45;2.05;;;10.10;99.90;;;;;;5000140;28;20033;-83
2023/05/03 03:27:22;;;;;;;4.97;2.00;;;10.10;99.90;;;;;;5012461;28;20052;-84
2023/05/03 03:29:48;;;;;;;5.78;1.75;;;10.50;99.90;;;;;;5011509;28;20053;-83
2023/05/03 03:32:14;;;;;;;8.02;1.73;;;10.10;99.90;;;;;;5012422;28;20053;-83
2023/05/03 03:34:39;;;;;;;5.65;1.60;;;10.00;99.90;;;;;;5001042;28;20537;-83
2023/05/03 03:37:06;;;;;;;3.00;1.83;;;10.10;99.90;;;;;;5003929;28;20511;-83
2023/05/03 03:39:31;;;;;;;8.18;2.40;;;10.00;99.90;;;;;;5010553;28;20112;-84
2023/05/03 03:41:57;;;;;;;6.35;1.88;;;10.00;99.90;;;;;;4992286;28;20181;-83
2023/05/03 03:44:22;;;;;;;6.40;2.00;;;10.00;99.90;;;;;;4999217;28;20030;-84
2023/05/03 03:46:48;;;;;;;4.03;2.25;;;10.00;99.90;;;;;;4997330;28;20390;-83
2023/05/03 03:49:13;;;;;;;5.18;2.33;;;10.00;99.90;;;;;;4992141;28;20033;-83
2023/05/03 03:51:39;;;;;;;7.15;2.22;;;10.00;99.90;;;;;;4994635;28;20564;-84
2023/05/03 03:54:05;;;;;;;3.92;1.58;;;10.00;99.90;;;;;;5003143;28;20033;-83
2023/05/03 03:56:30;;;;;;;6.55;2.25;;;10.00;99.90;;;;;;5013452;28;20033;-84
2023/05/03 03:58:56;;;;;;;5.65;2.20;;;10.00;99.90;;;;;;4999204;28;20373;-84
2023/05/03 04:01:22;;;;;;;4.95;2.20;;;10.00;99.90;;;;;;5015741;28;20096;-84
2023/05/03 04:03:47;;;;;;;3.03;1.90;;;10.00;99.90;;;;;;5012384;28;20026;-83
2023/05/03 04:06:13;;;;;;;5.60;2.20;;;9.90;99.90;;;;;;5003613;28;20446;-84
2023/05/03 04:08:38;;;;;;;6.72;2.30;;;10.00;99.90;;;;;;4997813;28;20466;-83
2023/05/03 04:11:10;;;;;;;5.53;2.38;;;9.90;99.90;;;;;;4995025;28;20418;-83
2023/05/03 04:13:36;;;;;;;9.63;2.85;;;9.90;99.90;;;;;;4998523;28;20026;-84
2023/05/03 04:16:01;;;;;;;4.53;2.28;;;9.90;99.90;;;;;;5007442;28;20085;-83
2023/05/03 04:18:27;;;;;;;5.22;1.98;;;9.80;99.90;;;;;;4996947;28;20026;-84
2023/05/03 04:20:52;;;;;;;2.92;1.85;;;9.80;99.90;;;;;;4995180;28;20023;-84
2023/05/03 04:23:18;;;;;;;5.22;1.73;;;9.80;99.90;;;;;;4995840;28;20031;-84
2023/05/03 04:25:47;;;;;;;3.35;2.05;;;9.70;99.90;;;;;;5009303;28;20033;-84
2023/05/03 04:28:14;;;;;;;3.28;1.70;;;9.70;99.90;;;;;;4999612;28;20057;-84
2023/05/03 04:30:40;;;;;;;3.08;1.73;;;9.50;99.90;;;;;;4998120;28;20038;-84
2023/05/03 04:33:07;;;;;;;5.88;1.70;;;9.50;99.90;;;;;;4994970;28;20027;-84
2023/05/03 04:35:34;;;;;;;5.30;1.70;;;9.50;99.90;;;;;;5005988;28;20493;-84
2023/05/03 04:38:00;;;;;;;5.28;1.55;;;9.50;99.90;;;;;;5011424;28;20105;-84
2023/05/03 04:40:26;;;;;;;5.03;1.75;;;9.50;99.90;;;;;;4995389;28;20046;-83
2023/05/03 04:42:51;;;;;;;3.63;1.70;;;9.60;99.90;;;;;;4994847;28;20030;-83
2023/05/03 04:45:17;;;;;;;4.10;1.58;;;9.60;99.90;;;;;;5001367;28;20167;-83
2023/05/03 04:47:43;;;;;;;8.32;1.67;;;9.70;99.90;;;;;;5003462;28;20026;-83
2023/05/03 04:50:09;;;;;;;3.90;1.65;;;9.70;99.90;;;;;;5010361;28;20037;-82
2023/05/03 04:52:35;;;;;;;3.97;1.83;;;9.70;99.90;;;;;;4997359;28;20022;-83
2023/05/03 04:55:02;;;;;;;7.25;1.60;;;9.80;99.90;;;;;;4994672;28;20038;-83
2023/05/03 04:57:27;;;;;;;4.72;1.83;;;9.80;99.90;;;;;;5005409;28;20493;-83
2023/05/03 04:59:53;;;;;;;10.65;2.38;;;9.80;99.90;;;;;;5005134;28;20034;-83
2023/05/03 05:02:20;;;;;;;3.03;2.03;;;9.80;99.90;;;;;;5004865;28;20018;-82
2023/05/03 05:04:45;;;;;;;3.80;1.70;;;10.40;99.90;;;;;;5014313;28;20026;-83
2023/05/03 05:07:12;;;;;;;4.72;1.50;;;9.90;99.90;;;;;;5011890;28;20324;-82
2023/05/03 05:09:37;;;;;;;6.05;1.55;;;10.00;99.90;;;;;;5005511;28;20091;-82
2023/05/03 05:12:03;;;;;;;3.17;1.75;;;9.90;99.90;;;;;;5011169;28;20534;-82
2023/05/03 05:14:30;;;;;;;7.65;2.10;;;10.00;99.90;;;;;;5012258;28;20533;-82
2023/05/03 05:16:56;;;;;;;4.40;2.05;;;10.00;99.90;;;;;;5002630;28;20034;-82
2023/05/03 05:19:21;;;;;;;7.00;2.08;;;10.00;99.90;;;;;;5010861;28;20018;-82
2023/05/03 05:21:47;;;;;;;4.85;1.65;;;10.00;99.90;;;;;;5008905;28;20038;-82
2023/05/03 05:24:12;;;;;;;7.18;1.80;;;10.00;99.90;;;;;;5013466;28;20022;-82
2023/05/03 05:26:38;;;;;;;4.38;1.73;;;10.00;99.90;;;;;;5011754;28;20022;-82
2023/05/03 05:29:04;;;;;;;4.43;1.50;;;10.00;99.90;;;;;;5011311;28;20038;-82
2023/05/03 05:31:30;;;;;;;6.25;2.17;;;10.00;99.90;;;;;;5010499;28;20393;-83
2023/05/03 05:33:56;;;;;;;3.53;1.73;;;10.00;99.90;;;;;;5012918;28;20378;-82
2023/05/03 05:36:21;;;;;;;5.35;1.90;;;10.10;99.90;;;;;;5012686;28;20030;-83
2023/05/03 05:38:47;;;;;;;5.60;2.33;;;10.00;99.90;;;;;;5012845;28;20014;-82
2023/05/03 05:41:12;;;;;;;5.72;2.03;;;10.00;99.90;;;;;;5012098;28;20396;-83
2023/05/03 05:43:38;;;;;;;4.32;2.03;;;10.00;99.90;;;;;;5012079;28;20466;-82
2023/05/03 05:46:03;;;;;;;4.30;1.80;;;9.90;99.90;;;;;;5013139;28;20021;-82
2023/05/03 05:48:29;;;;;;;4.22;2.05;;;10.00;99.90;;;;;;5011454;28;20034;-82
2023/05/03 05:50:55;;;;;;;7.30;2.00;;;10.10;99.90;;;;;;5008943;28;20022;-83
2023/05/03 05:53:20;;;;;;;7.43;1.77;;;10.10;99.90;;;;;;5004745;28;20034;-82
2023/05/03 05:55:46;;;;;;;4.53;1.90;;;10.10;99.90;;;;;;5000197;28;20042;-81
2023/05/03 05:58:12;;;;;;;6.40;2.72;;;10.10;99.90;;;;;;4996378;28;20390;-84
2023/05/03 06:00:38;;;;;;;5.97;2.17;;;10.10;99.90;;;;;;5002287;28;20045;-85
2023/05/03 06:03:04;;;;;;;5.82;2.45;;;10.20;99.90;;;;;;4992152;28;20145;-82
2023/05/03 06:05:30;;;;;;;4.88;2.30;;;10.30;99.90;;;;;;4996289;28;20033;-85
2023/05/03 06:07:55;;;;;;;3.45;1.55;;;10.30;99.90;;;;;;5010997;28;20490;-84
2023/05/03 06:10:21;;;;;;;6.03;2.03;;;10.30;99.90;;;;;;5003787;28;20042;-83
2023/05/03 06:12:47;;;;;;;2.42;1.80;;;10.30;99.90;;;;;;5003280;28;20038;-85
2023/05/03 06:15:13;;;;;;;5.10;1.95;;;10.40;99.90;;;;;;5001379;28;20501;-85
2023/05/03 06:17:38;;;;;;;6.07;2.25;;;10.40;99.90;;;;;;5001910;28;20026;-84
2023/05/03 06:20:05;;;;;;;3.60;1.88;;;10.50;99.90;;;;;;5003118;28;20018;-85
2023/05/03 06:22:30;;;;;;;7.20;3.85;;;10.50;99.90;;;;;;5001231;28;20030;-85
2023/05/03 06:24:56;;;;;;;5.15;2.38;;;10.50;99.90;;;;;;5003446;28;20025;-85
2023/05/03 06:27:23;;;;;;;5.65;2.10;;;10.10;99.90;;;;;;5008497;28;20022;-84
2023/05/03 06:29:49;;;;;;;2.85;1.83;;;10.00;99.90;;;;;;5004332;28;20026;-83
2023/05/03 06:32:15;;;;;;;4.57;2.03;;;9.90;99.90;;;;;;4998837;28;20406;-84
2023/05/03 06:34:40;;;;;;;5.18;2.22;;;9.90;99.90;;;;;;4992857;28;20177;-84
2023/05/03 06:37:06;;;;;;;5.32;1.70;;;10.00;99.90;;;;;;4992989;28;20083;-85
2023/05/03 06:39:31;;;;;;;6.15;2.70;;;10.00;99.90;;;;;;4992241;28;20026;-85
2023/05/03 06:41:57;;;;;;;6.00;1.98;;;9.90;99.90;;;;;;4992858;28;20058;-85
2023/05/03 06:44:22;;;;;;;5.90;2.25;;;9.80;99.90;;;;;;5002671;28;20018;-84
2023/05/03 06:46:48;;;;;;;8.95;2.00;;;9.80;99.90;;;;;;5011464;28;20030;-86
2023/05/03 06:49:13;;;;;;;7.40;1.70;;;9.70;99.90;;;;;;5012327;28;20029;-83
2023/05/03 06:51:39;;;;;;;7.05;1.70;;;9.90;99.90;;;;;;5008201;28;20104;-84
2023/05/03 06:54:08;;;;;;;9.77;1.90;;;10.00;99.90;;;;;;4996543;28;20034;-85
2023/05/03 06:56:35;;;;;;;3.67;1.70;;;10.00;99.90;;;;;;5009026;28;20389;-83
2023/05/03 06:59:02;;;;;;;3.22;1.58;;;9.90;99.90;;;;;;5009291;28;20386;-85
2023/05/03 07:01:28;;;;;;;5.28;1.50;;;10.00;99.90;;;;;;5011419;28;20097;-85
2023/05/03 07:03:53;;;;;;;3.38;1.40;;;9.90;99.90;;;;;;5011963;28;20046;-84
2023/05/03 07:06:21;;;;;;;6.85;1.70;;;10.10;99.90;;;;;;5005643;28;20030;-82
2023/05/03 07:08:47;;;;;;;7.50;1.73;;;9.90;99.90;;;;;;5004145;28;20462;-83
2023/05/03 07:11:12;;;;;;;3.05;1.48;;;10.10;99.90;;;;;;4999901;28;20084;-87
2023/05/03 07:13:38;;;;;;;4.75;1.58;;;9.90;99.90;;;;;;5000901;28;20489;-84
2023/05/03 07:16:04;;;;;;;8.20;1.60;;;9.80;99.90;;;;;;5011682;28;20117;-84
2023/05/03 07:18:29;;;;;;;4.90;1.50;;;9.70;99.90;;;;;;5009982;28;20045;-85
2023/05/03 07:20:55;;;;;;;5.10;1.55;;;9.80;99.90;;;;;;5010738;28;20458;-84
2023/05/03 07:23:21;;;;;;;5.22;1.48;;;9.90;99.90;;;;;;5009110;28;20595;-84
2023/05/03 07:25:46;;;;;;;4.30;1.40;;;9.90;99.90;;;;;;5009838;28;20026;-84
2023/05/03 07:28:12;;;;;;;7.78;1.88;;;9.80;99.90;;;;;;5012482;28;20022;-84
2023/05/03 07:30:37;;;;;;;6.18;1.67;;;9.80;99.90;;;;;;5011628;28;20374;-85
2023/05/03 07:33:03;;;;;;;8.52;1.83;;;9.80;99.90;;;;;;5009567;28;20517;-84
2023/05/03 07:35:30;;;;;;;7.32;1.77;;;9.90;99.90;;;;;;5008388;28;20034;-84
2023/05/03 07:37:55;;;;;;;10.68;2.10;;;9.90;99.90;;;;;;5006790;28;20498;-84
2023/05/03 07:40:21;;;;;;;13.38;2.20;;;9.90;99.90;;;;;;5011121;28;20104;-84
2023/05/03 07:42:47;;;;;;;6.35;1.92;;;10.00;99.90;;;;;;5008576;28;20037;-84
2023/05/03 07:45:12;;;;;;;5.50;1.85;;;10.00;99.90;;;;;;4992278;28;20331;-85
2023/05/03 07:47:38;;;;;;;9.02;1.70;;;9.90;99.90;;;;;;4995569;28;20114;-85
2023/05/03 07:50:05;;;;;;;8.88;2.00;;;10.10;99.90;;;;;;4995413;28;20038;-85
2023/05/03 07:52:35;;;;;;;8.90;2.50;;;10.10;99.90;;;;;;5001119;28;20022;-85
2023/05/03 07:55:02;;;;;;;12.07;2.22;;;10.00;99.90;;;;;;5010555;28;20465;-85
2023/05/03 07:57:27;;;;;;;5.53;2.00;;;9.90;99.90;;;;;;5013520;28;20105;-84
2023/05/03 07:59:53;;;;;;;4.85;2.10;;;9.90;99.90;;;;;;5006373;28;20061;-84
2023/05/03 08:02:18;;;;;;;5.20;1.58;;;10.00;99.90;;;;;;5014548;28;20026;-85
2023/05/03 08:04:44;;;;;;;4.15;2.10;;;10.00;99.90;;;;;;5005798;28;20410;-83
2023/05/03 08:07:10;;;;;;;7.35;2.10;;;10.00;99.90;;;;;;4996040;28;20030;-84
2023/05/03 08:09:36;;;;;;;10.57;1.98;;;10.00;99.90;;;;;;4995035;28;20066;-85
2023/05/03 08:12:02;;;;;;;7.10;2.15;;;10.10;99.90;;;;;;4995527;28;20478;-84
2023/05/03 08:14:27;;;;;;;6.13;2.22;;;10.20;99.90;;;;;;5009697;28;20532;-84
2023/05/03 08:16:53;;;;;;;7.70;2.00;;;10.20;99.90;;;;;;5012799;28;20065;-84
2023/05/03 08:19:18;;;;;;;5.90;2.05;;;10.30;99.90;;;;;;5011645;28;20022;-85
2023/05/03 08:21:46;;;;;;;5.68;2.30;;;10.30;99.90;;;;;;5008017;28;20030;-84
2023/05/03 08:24:12;;;;;;;4.85;2.35;;;10.40;99.90;;;;;;5013166;28;20077;-84
2023/05/03 08:26:39;;;;;;;6.38;2.20;;;10.40;99.90;;;;;;4995112;28;20042;-84
2023/05/03 08:29:06;;;;;;;9.10;2.35;;;10.40;99.90;;;;;;4995489;28;20090;-85
2023/05/03 08:31:31;;;;;;;3.75;2.20;;;10.50;99.90;;;;;;4994863;28;20026;-85
2023/05/03 08:33:57;;;;;;;3.83;2.17;;;10.80;99.90;;;;;;5011434;28;20032;-85
2023/05/03 08:36:22;;;;;;;4.35;2.13;;;10.80;99.90;;;;;;5014084;28;20068;-85
2023/05/03 08:38:49;;;;;;;4.07;1.83;;;10.80;99.90;;;;;;5002711;28;20022;-85
2023/05/03 08:41:26;;;;;;;5.30;1.90;;;10.70;99.90;;;;;;5007236;28;20042;-85
2023/05/03 08:43:53;;;;;;;4.72;1.83;;;10.60;99.90;;;;;;5014759;28;20029;-85
2023/05/03 08:46:19;;;;;;;9.82;2.25;;;10.60;99.90;;;;;;4994602;28;20038;-85
2023/05/03 08:48:49;;;;;;;5.30;1.98;;;10.60;99.90;;;;;;4994761;28;20029;-85
2023/05/03 08:51:16;;;;;;;4.85;2.03;;;10.60;99.90;;;;;;4995087;28;20104;-85
2023/05/03 08:53:42;;;;;;;4.93;1.98;;;10.60;99.90;;;;;;4993996;28;20037;-84
2023/05/03 08:56:09;;;;;;;5.43;1.90;;;10.60;99.90;;;;;;4995146;28;20030;-84
2023/05/03 08:58:36;;;;;;;6.13;2.28;;;10.60;99.90;;;;;;4999971;28;20032;-83
2023/05/03 09:01:06;;;;;;;5.97;2.20;;;10.60;99.90;;;;;;5010691;28;20077;-84
2023/05/03 09:03:33;;;;;;;4.35;2.17;;;10.70;99.90;;;;;;5009502;28;20026;-84
2023/05/03 09:06:00;;;;;;;8.13;2.35;;;10.70;99.90;;;;;;5013612;28;20520;-84
2023/05/03 09:08:26;;;;;;;8.98;2.00;;;10.70;99.90;;;;;;5000657;28;20042;-84
2023/05/03 09:10:52;;;;;;;4.80;2.10;;;10.70;99.90;;;;;;4994384;28;20026;-84
2023/05/03 09:13:18;;;;;;;5.97;2.38;;;10.80;99.90;;;;;;4993856;28;20048;-83
2023/05/03 09:15:55;;;;;;;6.15;2.28;;;10.80;99.90;;;;;;4994442;28;20045;-84
2023/05/03 09:18:22;;;;;;;5.60;2.30;;;10.80;99.90;;;;;;5013844;28;20500;-83
2023/05/03 09:20:52;;;;;;;5.72;2.20;;;10.90;99.90;;;;;;5013418;28;20092;-84
2023/05/03 09:23:19;;;;;;;8.52;2.50;;;11.10;99.90;;;;;;5010200;28;20033;-84
2023/05/03 09:25:51;;;;;;;8.45;2.70;;;11.10;99.90;;;;;;4996627;28;20029;-84
2023/05/03 09:28:18;;;;;;;4.40;2.50;;;11.10;99.90;;;;;;4993841;28;20026;-84
2023/05/03 09:30:45;;;;;;;6.70;2.65;;;11.10;99.90;;;;;;4994221;28;20033;-84
2023/05/03 09:33:11;;;;;;;3.75;2.47;;;11.20;99.90;;;;;;4994291;28;20148;-84
2023/05/03 09:35:37;;;;;;;5.18;2.90;;;11.20;99.90;;;;;;4993309;28;20038;-84
2023/05/03 09:38:03;;;;;;;5.78;2.42;;;11.30;99.90;;;;;;5002730;28;20022;-84
2023/05/03 09:40:29;;;;;;;4.15;2.75;;;11.40;99.90;;;;;;5013372;28;20398;-83
2023/05/03 09:43:08;;;;;;;11.95;3.78;;;11.40;99.90;;;;;;5010787;28;20018;-84
2023/05/03 09:45:35;;;;;;;4.60;2.63;;;11.40;99.90;;;;;;5009388;28;20033;-84
2023/05/03 09:48:04;;;;;;;11.93;2.92;;;11.40;99.90;;;;;;4999237;28;20517;-84
2023/05/03 09:50:32;;;;;;;7.82;2.60;;;11.40;99.90;;;;;;5008617;28;20120;-83
2023/05/03 09:53:04;;;;;;;5.70;2.65;;;11.40;99.90;;;;;;5002870;28;20041;-85
2023/05/03 09:55:39;;;;;;;4.72;3.25;;;11.60;99.90;;;;;;5012272;28;20038;-85
2023/05/03 09:58:06;;;;;;;5.70;3.13;;;11.60;99.90;;;;;;4998750;28;20117;-83
2023/05/03 10:00:39;;;;;;;4.88;2.78;;;11.70;99.90;;;;;;4996862;28;20060;-84
2023/05/03 10:03:17;;;;;;;7.32;2.55;;;11.70;99.90;;;;;;5012158;28;20537;-84
2023/05/03 10:05:46;;;;;;;3.42;2.20;;;11.80;99.90;;;;;;5009554;28;20600;-84
2023/05/03 10:08:23;;;;;;;5.43;2.90;;;11.80;99.90;;;;;;5007424;28;20470;-83
2023/05/03 10:10:53;;;;;;;7.00;3.30;;;11.80;99.90;;;;;;5000277;28;20030;-84
2023/05/03 10:13:23;;;;;;;11.38;3.20;;;11.90;99.90;;;;;;5000854;28;20037;-83
2023/05/03 10:15:58;;;;;;;3.35;2.90;;;11.90;99.90;;;;;;5001105;28;20041;-82
2023/05/03 10:18:28;;;;;;;4.35;2.58;;;11.90;99.90;;;;;;5003340;28;20062;-84
2023/05/03 10:21:01;;;;;;;9.93;2.70;;;11.90;99.90;;;;;;4992474;28;20018;-83
2023/05/03 10:23:26;;;;;;;5.68;2.95;;;11.90;99.90;;;;;;4995462;28;20165;-84
2023/05/03 10:26:12;;;;;;;7.63;2.78;;;11.90;99.90;;;;;;5000522;28;20061;-84
2023/05/03 10:28:38;;;;;;;8.00;3.00;;;11.90;99.90;;;;;;5004445;28;20060;-85
2023/05/03 10:31:04;;;;;;;8.80;3.47;;;11.90;99.90;;;;;;4996780;28;20026;-84
2023/05/03 10:33:32;;;;;;;6.47;3.15;;;12.00;99.90;;;;;;4998429;28;20011;-84
2023/05/03 10:36:00;;;;;;;9.25;3.17;;;12.20;99.90;;;;;;5002743;28;20034;-84
2023/05/03 10:38:28;;;;;;;7.30;2.63;;;12.00;99.90;;;;;;4999362;28;20054;-84
2023/05/03 10:40:55;;;;;;;10.65;3.38;;;12.10;99.90;;;;;;4999339;28;20038;-85
2023/05/03 10:43:41;;;;;;;3.35;3.05;;;12.10;99.90;;;;;;4998197;28;20034;-86
2023/05/03 10:46:27;;;;;;;6.35;3.15;;;12.10;99.90;;;;;;5003183;28;20076;-85
2023/05/03 10:49:13;;;;;;;5.50;2.58;;;12.20;99.90;;;;;;5000283;28;20030;-85
2023/05/03 10:51:41;;;;;;;5.00;3.00;;;12.20;99.90;;;;;;4995429;28;20029;-83
2023/05/03 10:54:08;;;;;;;6.88;3.30;;;12.10;99.90;;;;;;4993056;28;20026;-84
2023/05/03 10:56:50;;;;;;;3.97;2.97;;;12.20;99.90;;;;;;4992164;28;20041;-84
2023/05/03 10:59:15;;;;;;;8.48;3.65;;;12.30;99.90;;;;;;4990904;28;20026;-85
2023/05/03 11:01:44;;;;;;;6.25;2.90;;;12.30;99.90;;;;;;4991842;28;20022;-84
2023/05/03 11:04:25;;;;;;;5.82;2.83;;;12.30;99.90;;;;;;4992863;28;20034;-84
2023/05/03 11:06:55;;;;;;;6.85;2.75;;;12.30;99.90;;;;;;4996627;28;20088;-84
2023/05/03 11:09:30;;;;;;;5.63;2.88;;;12.40;99.90;;;;;;4998565;28;20035;-83
2023/05/03 11:11:56;;;;;;;7.28;3.25;;;12.40;99.90;;;;;;5010217;28;20026;-84
2023/05/03 11:14:22;;;;;;;4.57;2.72;;;12.50;99.90;;;;;;5006818;28;20030;-85
2023/05/03 11:16:49;;;;;;;9.70;3.22;;;12.40;99.90;;;;;;4997559;28;20052;-84
2023/05/03 11:19:15;;;;;;;8.30;3.25;;;12.50;99.90;;;;;;5006583;28;20030;-84
2023/05/03 11:21:42;;;;;;;10.02;3.63;;;12.50;99.90;;;;;;5002380;28;20088;-86
2023/05/03 11:24:08;;;;;;;10.82;3.72;;;12.50;99.90;;;;;;4991685;28;20080;-84
2023/05/03 11:26:37;;;;;;;7.38;3.47;;;12.70;99.90;;;;;;5000198;28;20123;-84
2023/05/03 11:29:04;;;;;;;4.45;3.53;;;12.80;99.90;;;;;;5005941;28;20677;-85
2023/05/03 11:31:30;;;;;;;12.65;4.55;;;12.70;99.90;;;;;;5006992;28;20079;-85
2023/05/03 11:33:56;;;;;;;5.93;4.18;;;12.70;99.90;;;;;;5007511;28;20083;-84
2023/05/03 11:36:22;;;;;;;7.63;3.80;;;12.70;99.90;;;;;;5004791;28;20339;-85
2023/05/03 11:38:47;;;;;;;6.85;4.20;;;12.80;99.90;;;;;;5006176;28;20022;-85
2023/05/03 11:41:15;;;;;;;10.20;4.47;;;13.00;99.90;;;;;;5006370;28;20046;-85
2023/05/03 11:43:46;;;;;;;4.32;2.97;;;12.80;99.90;;;;;;5009922;28;20022;-84
2023/05/03 11:46:34;;;;;;;5.22;3.28;;;12.80;99.90;;;;;;5009737;28;20030;-85
2023/05/03 11:49:01;;;;;;;3.95;3.10;;;12.90;99.90;;;;;;5007513;28;20124;-84
2023/05/03 11:51:27;;;;;;;5.30;3.42;;;13.00;99.90;;;;;;4993903;28;20378;-84
2023/05/03 11:53:54;;;;;;;6.75;3.60;;;13.00;99.90;;;;;;4990111;28;20054;-83
2023/05/03 11:56:21;;;;;;;6.82;3.47;;;13.00;99.90;;;;;;4989792;28;20041;-84
2023/05/03 11:58:52;;;;;;;4.25;3.50;;;13.10;99.60;;;;;;4990233;28;20030;-84
2023/05/03 12:01:21;;;;;;;6.55;3.33;;;13.10;99.30;;;;;;4990342;28;20573;-84
2023/05/03 12:03:48;;;;;;;9.43;4.05;;;13.10;99.50;;;;;;4989709;28;20113;-84
2023/05/03 12:06:15;;;;;;;7.97;3.90;;;13.10;99.80;;;;;;4990371;28;20037;-84
2023/05/03 12:08:41;;;;;;;12.15;3.42;;;13.20;99.90;;;;;;4991233;28;20030;-84
2023/05/03 12:11:06;;;;;;;12.63;3.55;;;13.20;99.70;;;;;;4995892;28;20037;-84
2023/05/03 12:13:35;;;;;;;8.70;3.47;;;13.20;99.80;;;;;;5000514;28;20034;-86
2023/05/03 12:16:02;;;;;;;7.45;3.58;;;13.20;99.90;;;;;;5000875;28;20042;-83
2023/05/03 12:19:04;;;;;;;7.68;3.67;;;13.40;99.40;;;;;;4995869;28;20022;-84
2023/05/03 12:21:46;;;;;;;3.63;3.15;;;13.50;99.10;;;;;;4994836;28;20073;-85
2023/05/03 12:24:16;;;;;;;6.18;2.97;;;13.60;98.90;;;;;;4994940;28;20030;-84
2023/05/03 12:26:45;;;;;;;12.82;3.67;;;13.60;99.50;;;;;;5013533;28;20096;-85
2023/05/03 12:29:11;;;;;;;8.50;4.07;;;13.50;99.30;;;;;;5014076;28;20377;-85
2023/05/03 12:31:37;;;;;;;8.60;3.65;;;13.50;98.70;;;;;;5013729;28;20414;-84
2023/05/03 12:34:06;;;;;;;6.60;3.80;;;13.50;99.30;;;;;;5004218;28;20038;-86
2023/05/03 12:36:32;;;;;;;8.02;4.20;;;13.50;99.90;;;;;;5005869;28;20056;-85
2023/05/03 12:38:58;;;;;;;7.40;4.28;;;13.50;99.60;;;;;;5014129;28;20466;-86
2023/05/03 12:41:26;;;;;;;5.88;3.72;;;13.60;99.20;;;;;;4998745;28;20050;-85
2023/05/03 12:43:52;;;;;;;7.30;3.92;;;13.60;99.60;;;;;;4993975;28;20030;-85
2023/05/03 12:46:18;;;;;;;8.77;3.70;;;13.60;99.80;;;;;;4994848;28;20030;-85
2023/05/03 12:48:44;;;;;;;6.22;3.92;;;13.70;99.50;;;;;;4994356;28;20355;-85